RYR94ZG LEBL-LIRF
Flight info
| Callsign | RYR94ZG |
|---|---|
| Flight time | 1h 12m |
| Altitude | 32000 |
| Route | DIPES N725 OSPOK/N0456F330 DCT NOLVI DCT ORKUM/N0453F340 DCT ELSAG DCT ALG DCT ROMPO DCT RUXOP DCT BATOX DCT TINTO/N0387F180 L5 VALMA |
| Aircraft | B38M/M-SDE1FGHILORVWXY/HB1 |
Departure
| Time | 2026-05-04 19:17 |
|---|---|
| Airport | Josep Tarradellas Barcelona-El Prat Airport (LEBL) |
Arrival
| Time | 2026-05-04 20:30 |
|---|---|
| Airport | Rome–Fiumicino Leonardo da Vinci International Airport (LIRF) |
| Time | Latitude | Longitude | Altitude | Speed | Heading |
|---|---|---|---|---|---|
| 2026-05-04 18:36 | 41.30370 | 2.08483 | 26 ft | 0 kts | 246° |
| 2026-05-04 19:09 | 41.30369 | 2.08479 | 25 ft | 2 kts | 246° |
| 2026-05-04 19:09 | 41.30344 | 2.08421 | 24 ft | 9 kts | 215° |
| 2026-05-04 19:09 | 41.30278 | 2.08444 | 23 ft | 13 kts | 156° |
| 2026-05-04 19:09 | 41.30185 | 2.08479 | 24 ft | 14 kts | 206° |
| 2026-05-04 19:10 | 41.30135 | 2.08369 | 23 ft | 15 kts | 245° |
| 2026-05-04 19:10 | 41.30083 | 2.08256 | 22 ft | 12 kts | 203° |
| 2026-05-04 19:10 | 41.30011 | 2.08281 | 23 ft | 9 kts | 156° |
| 2026-05-04 19:10 | 41.30004 | 2.08286 | 22 ft | 0 kts | 155° |
| 2026-05-04 19:12 | 41.30001 | 2.08287 | 22 ft | 1 kts | 155° |
| 2026-05-04 19:12 | 41.29886 | 2.08356 | 27 ft | 19 kts | 156° |
| 2026-05-04 19:12 | 41.29730 | 2.08450 | 21 ft | 28 kts | 156° |
| 2026-05-04 19:13 | 41.29546 | 2.08562 | 20 ft | 30 kts | 155° |
| 2026-05-04 19:13 | 41.29350 | 2.08679 | 19 ft | 31 kts | 155° |
| 2026-05-04 19:13 | 41.29162 | 2.08792 | 18 ft | 29 kts | 155° |
| 2026-05-04 19:13 | 41.28999 | 2.08890 | 18 ft | 22 kts | 156° |
| 2026-05-04 19:14 | 41.28961 | 2.09017 | 21 ft | 17 kts | 67° |
| 2026-05-04 19:14 | 41.29013 | 2.09171 | 19 ft | 19 kts | 65° |
| 2026-05-04 19:14 | 41.29076 | 2.09356 | 19 ft | 23 kts | 65° |
| 2026-05-04 19:14 | 41.29151 | 2.09574 | 21 ft | 30 kts | 65° |
| 2026-05-04 19:15 | 41.29236 | 2.09823 | 21 ft | 28 kts | 66° |
| 2026-05-04 19:15 | 41.29280 | 2.09962 | 21 ft | 15 kts | 81° |
| 2026-05-04 19:15 | 41.29263 | 2.10053 | 17 ft | 0 kts | 110° |
| 2026-05-04 19:15 | 41.29261 | 2.10060 | 19 ft | 3 kts | 110° |
| 2026-05-04 19:16 | 41.29247 | 2.10111 | 20 ft | 10 kts | 110° |
| 2026-05-04 19:16 | 41.29215 | 2.10214 | 19 ft | 12 kts | 133° |
| 2026-05-04 19:16 | 41.29180 | 2.10204 | 19 ft | 3 kts | 243° |
| 2026-05-04 19:16 | 41.29174 | 2.10187 | 20 ft | 4 kts | 244° |
| 2026-05-04 19:17 | 41.29056 | 2.09846 | 23 ft | 82 kts | 245° |
| 2026-05-04 19:17 | 41.28715 | 2.08848 | 24 ft | 153 kts | 245° |
| 2026-05-04 19:17 | 41.28205 | 2.07288 | 661 ft | 175 kts | 247° |
| 2026-05-04 19:17 | 41.27689 | 2.05973 | 1508 ft | 179 kts | 237° |
| 2026-05-04 19:18 | 41.26911 | 2.04553 | 2121 ft | 205 kts | 231° |
| 2026-05-04 19:18 | 41.25787 | 2.03351 | 2997 ft | 212 kts | 206° |
| 2026-05-04 19:18 | 41.24320 | 2.03015 | 3954 ft | 220 kts | 177° |
| 2026-05-04 19:18 | 41.22835 | 2.03581 | 4976 ft | 223 kts | 166° |
| 2026-05-04 19:19 | 41.21345 | 2.04222 | 5861 ft | 228 kts | 168° |
| 2026-05-04 19:19 | 41.19813 | 2.04824 | 6736 ft | 230 kts | 169° |
| 2026-05-04 19:19 | 41.18269 | 2.05397 | 7633 ft | 231 kts | 171° |
| 2026-05-04 19:19 | 41.16651 | 2.05597 | 8288 ft | 239 kts | 187° |
| 2026-05-04 19:20 | 41.14954 | 2.05533 | 9083 ft | 244 kts | 186° |
| 2026-05-04 19:20 | 41.13278 | 2.05467 | 10015 ft | 246 kts | 186° |
| 2026-05-04 19:20 | 41.11561 | 2.05393 | 10833 ft | 248 kts | 186° |
| 2026-05-04 19:20 | 41.09875 | 2.05319 | 11298 ft | 242 kts | 187° |
| 2026-05-04 19:21 | 41.08165 | 2.05239 | 11895 ft | 248 kts | 187° |
| 2026-05-04 19:21 | 41.06425 | 2.05157 | 12678 ft | 252 kts | 187° |
| 2026-05-04 19:21 | 41.04668 | 2.05074 | 13544 ft | 254 kts | 187° |
| 2026-05-04 19:21 | 41.02896 | 2.04989 | 14311 ft | 256 kts | 187° |
| 2026-05-04 19:22 | 41.01090 | 2.04980 | 14943 ft | 269 kts | 177° |
| 2026-05-04 19:22 | 40.99259 | 2.05921 | 15272 ft | 302 kts | 149° |
| 2026-05-04 19:22 | 40.97831 | 2.08065 | 15282 ft | 333 kts | 121° |
| 2026-05-04 19:22 | 40.97290 | 2.11146 | 15693 ft | 360 kts | 94° |
| 2026-05-04 19:23 | 40.97541 | 2.14541 | 15990 ft | 381 kts | 86° |
| 2026-05-04 19:23 | 40.97805 | 2.18112 | 16223 ft | 399 kts | 88° |
| 2026-05-04 19:23 | 40.98039 | 2.21773 | 16671 ft | 409 kts | 88° |
| 2026-05-04 19:23 | 40.98289 | 2.25533 | 17393 ft | 412 kts | 88° |
| 2026-05-04 19:24 | 40.98543 | 2.29331 | 17992 ft | 417 kts | 88° |
| 2026-05-04 19:24 | 40.98800 | 2.33182 | 18589 ft | 422 kts | 88° |
| 2026-05-04 19:24 | 40.99059 | 2.37058 | 19140 ft | 426 kts | 88° |
| 2026-05-04 19:24 | 40.99319 | 2.40970 | 19694 ft | 430 kts | 88° |
| 2026-05-04 19:25 | 40.99581 | 2.44926 | 20207 ft | 434 kts | 88° |
| 2026-05-04 19:25 | 40.99842 | 2.48922 | 20655 ft | 438 kts | 88° |
| 2026-05-04 19:25 | 41.00107 | 2.52952 | 21127 ft | 441 kts | 88° |
| 2026-05-04 19:25 | 41.00371 | 2.57011 | 21585 ft | 444 kts | 89° |
| 2026-05-04 19:26 | 41.00636 | 2.61102 | 22042 ft | 448 kts | 89° |
| 2026-05-04 19:26 | 41.00907 | 2.65155 | 21904 ft | 445 kts | 89° |
| 2026-05-04 19:26 | 41.01158 | 2.69213 | 22128 ft | 449 kts | 89° |
| 2026-05-04 19:26 | 41.01424 | 2.73341 | 22586 ft | 452 kts | 89° |
| 2026-05-04 19:27 | 41.01688 | 2.77504 | 23019 ft | 456 kts | 89° |
| 2026-05-04 19:27 | 41.01954 | 2.81704 | 23462 ft | 459 kts | 89° |
| 2026-05-04 19:27 | 41.02219 | 2.85929 | 23825 ft | 462 kts | 89° |
| 2026-05-04 19:27 | 41.02484 | 2.90178 | 24207 ft | 464 kts | 89° |
| 2026-05-04 19:28 | 41.02750 | 2.94449 | 24578 ft | 467 kts | 89° |
| 2026-05-04 19:28 | 41.03016 | 2.98749 | 24938 ft | 470 kts | 89° |
| 2026-05-04 19:28 | 41.03281 | 3.03070 | 25305 ft | 472 kts | 89° |
| 2026-05-04 19:28 | 41.03544 | 3.07358 | 25642 ft | 474 kts | 89° |
| 2026-05-04 19:29 | 41.03808 | 3.11719 | 25996 ft | 477 kts | 89° |
| 2026-05-04 19:29 | 41.04073 | 3.16112 | 26347 ft | 479 kts | 89° |
| 2026-05-04 19:29 | 41.04338 | 3.20522 | 26680 ft | 482 kts | 89° |
| 2026-05-04 19:29 | 41.04602 | 3.24952 | 27003 ft | 484 kts | 89° |
| 2026-05-04 19:30 | 41.04866 | 3.29409 | 27339 ft | 486 kts | 89° |
| 2026-05-04 19:30 | 41.05130 | 3.33892 | 27656 ft | 489 kts | 89° |
| 2026-05-04 19:30 | 41.05393 | 3.38334 | 27715 ft | 480 kts | 89° |
| 2026-05-04 19:30 | 41.05650 | 3.42783 | 27507 ft | 489 kts | 89° |
| 2026-05-04 19:31 | 41.05906 | 3.47212 | 27429 ft | 479 kts | 89° |
| 2026-05-04 19:31 | 41.06141 | 3.51600 | 27367 ft | 487 kts | 92° |
| 2026-05-04 19:31 | 41.05810 | 3.56002 | 27779 ft | 477 kts | 107° |
| 2026-05-04 19:31 | 41.05106 | 3.60308 | 28008 ft | 481 kts | 108° |
| 2026-05-04 19:32 | 41.04375 | 3.64645 | 28294 ft | 483 kts | 108° |
| 2026-05-04 19:32 | 41.03620 | 3.68987 | 28622 ft | 485 kts | 108° |
| 2026-05-04 19:32 | 41.02846 | 3.73342 | 28905 ft | 487 kts | 109° |
| 2026-05-04 19:32 | 41.02062 | 3.77720 | 29204 ft | 489 kts | 109° |
| 2026-05-04 19:33 | 41.01272 | 3.82110 | 29463 ft | 491 kts | 109° |
| 2026-05-04 19:33 | 41.00476 | 3.86518 | 29733 ft | 494 kts | 109° |
| 2026-05-04 19:33 | 40.99676 | 3.90941 | 30003 ft | 496 kts | 109° |
| 2026-05-04 19:33 | 40.98869 | 3.95385 | 30241 ft | 497 kts | 109° |
| 2026-05-04 19:34 | 40.98080 | 3.99734 | 30221 ft | 486 kts | 109° |
| 2026-05-04 19:34 | 40.97279 | 4.04121 | 30054 ft | 495 kts | 109° |
| 2026-05-04 19:34 | 40.96467 | 4.08567 | 30261 ft | 497 kts | 109° |
| 2026-05-04 19:34 | 40.95652 | 4.13018 | 30503 ft | 499 kts | 109° |
| 2026-05-04 19:35 | 40.94832 | 4.17487 | 30700 ft | 501 kts | 109° |
| 2026-05-04 19:35 | 40.94007 | 4.21970 | 30941 ft | 502 kts | 109° |
| 2026-05-04 19:35 | 40.93179 | 4.26464 | 31175 ft | 503 kts | 109° |
| 2026-05-04 19:35 | 40.92348 | 4.30957 | 31476 ft | 503 kts | 109° |
| 2026-05-04 19:36 | 40.91516 | 4.35449 | 31785 ft | 502 kts | 109° |
| 2026-05-04 19:36 | 40.90683 | 4.39937 | 31950 ft | 503 kts | 109° |
| 2026-05-04 19:36 | 40.89848 | 4.44428 | 31942 ft | 502 kts | 109° |
| 2026-05-04 19:37 | 40.88182 | 4.53375 | 31945 ft | 501 kts | 109° |
| 2026-05-04 19:37 | 40.86509 | 4.62326 | 31928 ft | 502 kts | 110° |
| 2026-05-04 19:38 | 40.85272 | 4.71439 | 31959 ft | 508 kts | 102° |
| 2026-05-04 19:38 | 40.84409 | 4.80649 | 31945 ft | 509 kts | 102° |
| 2026-05-04 19:39 | 40.83544 | 4.89933 | 31945 ft | 509 kts | 102° |
| 2026-05-04 19:39 | 40.82674 | 4.99201 | 31932 ft | 509 kts | 102° |
| 2026-05-04 19:40 | 40.81796 | 5.08478 | 31956 ft | 509 kts | 103° |
| 2026-05-04 19:40 | 40.80907 | 5.17784 | 31955 ft | 509 kts | 103° |
| 2026-05-04 19:41 | 40.80018 | 5.27012 | 31958 ft | 509 kts | 103° |
| 2026-05-04 19:41 | 40.79196 | 5.35467 | 31925 ft | 509 kts | 103° |
| 2026-05-04 19:42 | 40.78277 | 5.44859 | 31958 ft | 510 kts | 103° |
| 2026-05-04 19:42 | 40.77360 | 5.54139 | 31955 ft | 511 kts | 103° |
| 2026-05-04 19:43 | 40.76434 | 5.63438 | 31966 ft | 512 kts | 103° |
| 2026-05-04 19:43 | 40.75499 | 5.72741 | 31945 ft | 511 kts | 102° |
| 2026-05-04 19:44 | 40.74560 | 5.82016 | 31973 ft | 510 kts | 103° |
| 2026-05-04 19:44 | 40.73617 | 5.91279 | 31977 ft | 510 kts | 103° |
| 2026-05-04 19:45 | 40.72668 | 6.00469 | 31972 ft | 509 kts | 103° |
| 2026-05-04 19:45 | 40.71706 | 6.09722 | 31964 ft | 511 kts | 102° |
| 2026-05-04 19:46 | 40.70737 | 6.18978 | 31982 ft | 509 kts | 102° |
| 2026-05-04 19:46 | 40.69762 | 6.28210 | 31982 ft | 509 kts | 102° |
| 2026-05-04 19:47 | 40.68786 | 6.37381 | 31982 ft | 509 kts | 102° |
| 2026-05-04 19:47 | 40.68127 | 6.46667 | 31944 ft | 515 kts | 86° |
| 2026-05-04 19:47 | 40.68966 | 6.51254 | 31998 ft | 517 kts | 72° |
| 2026-05-04 19:48 | 40.70009 | 6.55795 | 31967 ft | 518 kts | 77° |
| 2026-05-04 19:48 | 40.71832 | 6.64973 | 32006 ft | 518 kts | 77° |
| 2026-05-04 19:49 | 40.73678 | 6.74092 | 31994 ft | 519 kts | 77° |
| 2026-05-04 19:49 | 40.75533 | 6.83282 | 31993 ft | 519 kts | 77° |
| 2026-05-04 19:50 | 40.77379 | 6.92467 | 31996 ft | 517 kts | 77° |
| 2026-05-04 19:50 | 40.79214 | 7.01644 | 32002 ft | 517 kts | 77° |
| 2026-05-04 19:51 | 40.81042 | 7.10817 | 32000 ft | 517 kts | 77° |
| 2026-05-04 19:51 | 40.82849 | 7.19939 | 32006 ft | 517 kts | 77° |
| 2026-05-04 19:52 | 40.84660 | 7.29120 | 32007 ft | 517 kts | 77° |
| 2026-05-04 19:52 | 40.86466 | 7.38312 | 32010 ft | 517 kts | 77° |
| 2026-05-04 19:53 | 40.88263 | 7.47504 | 32008 ft | 517 kts | 77° |
| 2026-05-04 19:53 | 40.90055 | 7.56712 | 32014 ft | 518 kts | 77° |
| 2026-05-04 19:54 | 40.91826 | 7.65850 | 32022 ft | 514 kts | 77° |
| 2026-05-04 19:54 | 40.93592 | 7.75007 | 32017 ft | 514 kts | 77° |
| 2026-05-04 19:55 | 40.95349 | 7.84164 | 32018 ft | 514 kts | 77° |
| 2026-05-04 19:55 | 40.97100 | 7.93330 | 32020 ft | 514 kts | 77° |
| 2026-05-04 19:56 | 40.98843 | 8.02495 | 32014 ft | 513 kts | 77° |
| 2026-05-04 19:56 | 41.00564 | 8.11589 | 32025 ft | 513 kts | 77° |
| 2026-05-04 19:57 | 41.02289 | 8.20748 | 32026 ft | 513 kts | 77° |
| 2026-05-04 19:57 | 41.04004 | 8.29893 | 32024 ft | 512 kts | 77° |
| 2026-05-04 19:58 | 41.05715 | 8.39063 | 32027 ft | 513 kts | 77° |
| 2026-05-04 19:58 | 41.07408 | 8.48178 | 32026 ft | 513 kts | 77° |
| 2026-05-04 19:59 | 41.09101 | 8.57342 | 32027 ft | 513 kts | 77° |
| 2026-05-04 19:59 | 41.10790 | 8.66522 | 32031 ft | 513 kts | 77° |
| 2026-05-04 20:00 | 41.12495 | 8.75836 | 32025 ft | 513 kts | 77° |
| 2026-05-04 20:00 | 41.14181 | 8.85091 | 32035 ft | 513 kts | 77° |
| 2026-05-04 20:01 | 41.15848 | 8.94288 | 32040 ft | 513 kts | 77° |
| 2026-05-04 20:01 | 41.17506 | 9.03484 | 32034 ft | 512 kts | 77° |
| 2026-05-04 20:02 | 41.19148 | 9.12628 | 32037 ft | 512 kts | 77° |
| 2026-05-04 20:02 | 41.20794 | 9.21847 | 32040 ft | 515 kts | 77° |
| 2026-05-04 20:03 | 41.22440 | 9.31109 | 32040 ft | 515 kts | 77° |
| 2026-05-04 20:03 | 41.24080 | 9.40382 | 32043 ft | 516 kts | 77° |
| 2026-05-04 20:04 | 41.25712 | 9.49662 | 32034 ft | 514 kts | 77° |
| 2026-05-04 20:04 | 41.27328 | 9.58893 | 32043 ft | 512 kts | 77° |
| 2026-05-04 20:05 | 41.28925 | 9.68059 | 32044 ft | 513 kts | 77° |
| 2026-05-04 20:05 | 41.30526 | 9.77298 | 32051 ft | 513 kts | 78° |
| 2026-05-04 20:06 | 41.32119 | 9.86539 | 32050 ft | 512 kts | 77° |
| 2026-05-04 20:06 | 41.33699 | 9.95754 | 32052 ft | 511 kts | 77° |
| 2026-05-04 20:07 | 41.35275 | 10.04989 | 32063 ft | 514 kts | 78° |
| 2026-05-04 20:07 | 41.36842 | 10.14220 | 32066 ft | 515 kts | 78° |
| 2026-05-04 20:08 | 41.38411 | 10.23510 | 32065 ft | 514 kts | 77° |
| 2026-05-04 20:08 | 41.39972 | 10.32801 | 32075 ft | 514 kts | 77° |
| 2026-05-04 20:09 | 41.41525 | 10.42097 | 32015 ft | 515 kts | 77° |
| 2026-05-04 20:09 | 41.42298 | 10.46742 | 31756 ft | 512 kts | 77° |
| 2026-05-04 20:09 | 41.43055 | 10.51312 | 30549 ft | 519 kts | 78° |
| 2026-05-04 20:09 | 41.43835 | 10.56028 | 29040 ft | 521 kts | 78° |
| 2026-05-04 20:10 | 41.44609 | 10.60715 | 28176 ft | 515 kts | 77° |
| 2026-05-04 20:10 | 41.45370 | 10.65330 | 27705 ft | 505 kts | 77° |
| 2026-05-04 20:10 | 41.46117 | 10.69883 | 27046 ft | 501 kts | 77° |
| 2026-05-04 20:10 | 41.46858 | 10.74405 | 26373 ft | 497 kts | 77° |
| 2026-05-04 20:11 | 41.47591 | 10.78891 | 25733 ft | 493 kts | 78° |
| 2026-05-04 20:11 | 41.48317 | 10.83347 | 25086 ft | 490 kts | 78° |
| 2026-05-04 20:11 | 41.49036 | 10.87771 | 24435 ft | 487 kts | 78° |
| 2026-05-04 20:11 | 41.49749 | 10.92172 | 23785 ft | 484 kts | 78° |
| 2026-05-04 20:12 | 41.50457 | 10.96546 | 23034 ft | 480 kts | 78° |
| 2026-05-04 20:12 | 41.51146 | 11.00817 | 22331 ft | 463 kts | 78° |
| 2026-05-04 20:12 | 41.51804 | 11.04903 | 21545 ft | 451 kts | 78° |
| 2026-05-04 20:12 | 41.52449 | 11.08920 | 20978 ft | 435 kts | 78° |
| 2026-05-04 20:13 | 41.53072 | 11.12812 | 20432 ft | 426 kts | 78° |
| 2026-05-04 20:13 | 41.53693 | 11.16699 | 19832 ft | 432 kts | 78° |
| 2026-05-04 20:13 | 41.54320 | 11.20631 | 19246 ft | 435 kts | 78° |
| 2026-05-04 20:13 | 41.54946 | 11.24570 | 18968 ft | 429 kts | 79° |
| 2026-05-04 20:14 | 41.55558 | 11.28423 | 18680 ft | 420 kts | 79° |
| 2026-05-04 20:14 | 41.56152 | 11.32171 | 18468 ft | 405 kts | 78° |
| 2026-05-04 20:14 | 41.56719 | 11.35767 | 18259 ft | 388 kts | 78° |
| 2026-05-04 20:14 | 41.57262 | 11.39210 | 18089 ft | 370 kts | 78° |
| 2026-05-04 20:15 | 41.57817 | 11.42463 | 17804 ft | 363 kts | 72° |
| 2026-05-04 20:15 | 41.58703 | 11.45624 | 17425 ft | 363 kts | 69° |
| 2026-05-04 20:15 | 41.59610 | 11.48787 | 17064 ft | 369 kts | 66° |
| 2026-05-04 20:15 | 41.61026 | 11.51688 | 16821 ft | 381 kts | 43° |
| 2026-05-04 20:16 | 41.63224 | 11.53715 | 16614 ft | 392 kts | 25° |
| 2026-05-04 20:16 | 41.65667 | 11.55493 | 16377 ft | 406 kts | 28° |
| 2026-05-04 20:16 | 41.68127 | 11.57383 | 16066 ft | 411 kts | 28° |
| 2026-05-04 20:16 | 41.70598 | 11.59308 | 15619 ft | 410 kts | 28° |
| 2026-05-04 20:17 | 41.73055 | 11.61230 | 15108 ft | 408 kts | 28° |
| 2026-05-04 20:17 | 41.75501 | 11.63149 | 14567 ft | 406 kts | 28° |
| 2026-05-04 20:17 | 41.77931 | 11.65058 | 14058 ft | 404 kts | 29° |
| 2026-05-04 20:17 | 41.80349 | 11.66958 | 13491 ft | 402 kts | 29° |
| 2026-05-04 20:18 | 41.82750 | 11.68849 | 13038 ft | 397 kts | 28° |
| 2026-05-04 20:18 | 41.85098 | 11.70694 | 12868 ft | 385 kts | 28° |
| 2026-05-04 20:18 | 41.87371 | 11.72480 | 12705 ft | 373 kts | 28° |
| 2026-05-04 20:18 | 41.89542 | 11.74321 | 12301 ft | 368 kts | 30° |
| 2026-05-04 20:19 | 41.91806 | 11.75852 | 11617 ft | 370 kts | 26° |
| 2026-05-04 20:19 | 41.93996 | 11.77626 | 10924 ft | 364 kts | 31° |
| 2026-05-04 20:19 | 41.96134 | 11.79386 | 10265 ft | 357 kts | 30° |
| 2026-05-04 20:19 | 41.98249 | 11.81093 | 9575 ft | 351 kts | 30° |
| 2026-05-04 20:20 | 42.00331 | 11.82754 | 8882 ft | 346 kts | 31° |
| 2026-05-04 20:20 | 42.02386 | 11.84383 | 8223 ft | 340 kts | 31° |
| 2026-05-04 20:20 | 42.04414 | 11.85985 | 7597 ft | 335 kts | 31° |
| 2026-05-04 20:20 | 42.06398 | 11.87550 | 7106 ft | 326 kts | 32° |
| 2026-05-04 20:21 | 42.08065 | 11.89425 | 6737 ft | 310 kts | 56° |
| 2026-05-04 20:21 | 42.08951 | 11.91934 | 6572 ft | 286 kts | 76° |
| 2026-05-04 20:21 | 42.10088 | 11.96664 | 6455 ft | 246 kts | 75° |
| 2026-05-04 20:22 | 42.10596 | 11.98793 | 6338 ft | 234 kts | 76° |
| 2026-05-04 20:22 | 42.11082 | 12.00843 | 6192 ft | 227 kts | 76° |
| 2026-05-04 20:22 | 42.11394 | 12.02894 | 5965 ft | 220 kts | 98° |
| 2026-05-04 20:22 | 42.10949 | 12.04789 | 5681 ft | 210 kts | 127° |
| 2026-05-04 20:23 | 42.10057 | 12.06328 | 5452 ft | 208 kts | 133° |
| 2026-05-04 20:23 | 42.09124 | 12.07808 | 5195 ft | 207 kts | 134° |
| 2026-05-04 20:23 | 42.08190 | 12.09244 | 4954 ft | 206 kts | 135° |
| 2026-05-04 20:23 | 42.07239 | 12.10682 | 4693 ft | 205 kts | 135° |
| 2026-05-04 20:24 | 42.06287 | 12.12104 | 4434 ft | 204 kts | 135° |
| 2026-05-04 20:24 | 42.05336 | 12.13515 | 4177 ft | 203 kts | 135° |
| 2026-05-04 20:24 | 42.04392 | 12.14909 | 3947 ft | 201 kts | 136° |
| 2026-05-04 20:24 | 42.03452 | 12.16289 | 3806 ft | 199 kts | 136° |
| 2026-05-04 20:25 | 42.02518 | 12.17658 | 3683 ft | 199 kts | 135° |
| 2026-05-04 20:25 | 42.01498 | 12.18899 | 3443 ft | 196 kts | 150° |
| 2026-05-04 20:25 | 42.00280 | 12.19623 | 3176 ft | 189 kts | 163° |
| 2026-05-04 20:25 | 41.99062 | 12.20109 | 2922 ft | 177 kts | 165° |
| 2026-05-04 20:26 | 41.97907 | 12.20579 | 2694 ft | 169 kts | 163° |
| 2026-05-04 20:26 | 41.96811 | 12.21037 | 2496 ft | 163 kts | 164° |
| 2026-05-04 20:26 | 41.95744 | 12.21484 | 2330 ft | 159 kts | 164° |
| 2026-05-04 20:26 | 41.94726 | 12.21911 | 2140 ft | 147 kts | 164° |
| 2026-05-04 20:27 | 41.93777 | 12.22309 | 1959 ft | 143 kts | 164° |
| 2026-05-04 20:27 | 41.92823 | 12.22710 | 1755 ft | 141 kts | 164° |
| 2026-05-04 20:27 | 41.91894 | 12.23098 | 1557 ft | 142 kts | 163° |
| 2026-05-04 20:27 | 41.90950 | 12.23495 | 1374 ft | 142 kts | 163° |
| 2026-05-04 20:28 | 41.90008 | 12.23889 | 1175 ft | 141 kts | 163° |
| 2026-05-04 20:28 | 41.89073 | 12.24280 | 998 ft | 141 kts | 163° |
| 2026-05-04 20:28 | 41.88130 | 12.24678 | 787 ft | 141 kts | 161° |
| 2026-05-04 20:28 | 41.87183 | 12.25067 | 614 ft | 143 kts | 163° |
| 2026-05-04 20:29 | 41.86234 | 12.25466 | 405 ft | 142 kts | 161° |
| 2026-05-04 20:29 | 41.85286 | 12.25864 | 227 ft | 144 kts | 162° |
| 2026-05-04 20:29 | 41.84338 | 12.26257 | 32 ft | 138 kts | 162° |
| 2026-05-04 20:29 | 41.83558 | 12.26585 | 17 ft | 86 kts | 162° |
| 2026-05-04 20:30 | 41.83092 | 12.26779 | 14 ft | 61 kts | 162° |
| 2026-05-04 20:30 | 41.82781 | 12.26870 | 17 ft | 38 kts | 179° |
| 2026-05-04 20:30 | 41.82554 | 12.26824 | 13 ft | 23 kts | 193° |
| 2026-05-04 20:30 | 41.82396 | 12.26780 | 13 ft | 24 kts | 186° |
| 2026-05-04 20:31 | 41.82228 | 12.26818 | 13 ft | 26 kts | 162° |
| 2026-05-04 20:31 | 41.82050 | 12.26893 | 13 ft | 28 kts | 163° |
| 2026-05-04 20:31 | 41.81860 | 12.26973 | 14 ft | 29 kts | 162° |
| 2026-05-04 20:31 | 41.81661 | 12.27056 | 14 ft | 31 kts | 163° |
| 2026-05-04 20:32 | 41.81450 | 12.27144 | 14 ft | 32 kts | 162° |
| 2026-05-04 20:32 | 41.81233 | 12.27235 | 14 ft | 33 kts | 162° |
| 2026-05-04 20:32 | 41.81007 | 12.27330 | 15 ft | 35 kts | 163° |
| 2026-05-04 20:32 | 41.80787 | 12.27323 | 15 ft | 26 kts | 189° |
| 2026-05-04 20:33 | 41.80648 | 12.27196 | 15 ft | 27 kts | 248° |
| 2026-05-04 20:33 | 41.80582 | 12.26957 | 16 ft | 28 kts | 250° |
| 2026-05-04 20:33 | 41.80512 | 12.26702 | 19 ft | 30 kts | 250° |
| 2026-05-04 20:33 | 41.80443 | 12.26451 | 20 ft | 18 kts | 250° |
| 2026-05-04 20:34 | 41.80375 | 12.26365 | 17 ft | 16 kts | 183° |
| 2026-05-04 20:34 | 41.80261 | 12.26409 | 16 ft | 18 kts | 169° |
| 2026-05-04 20:34 | 41.80152 | 12.26367 | 16 ft | 14 kts | 205° |
| 2026-05-04 20:34 | 41.80055 | 12.26307 | 19 ft | 17 kts | 204° |
| 2026-05-04 20:35 | 41.79943 | 12.26238 | 17 ft | 19 kts | 205° |
| 2026-05-04 20:35 | 41.79816 | 12.26159 | 16 ft | 20 kts | 205° |
| 2026-05-04 20:35 | 41.79699 | 12.26071 | 16 ft | 18 kts | 205° |
| 2026-05-04 20:35 | 41.79592 | 12.26003 | 18 ft | 12 kts | 205° |
| 2026-05-04 20:36 | 41.79569 | 12.25982 | 16 ft | 1 kts | 261° |
| 2026-05-04 20:36 | 41.79578 | 12.25947 | 16 ft | 5 kts | 293° |
| 2026-05-04 20:36 | 41.79585 | 12.25925 | 16 ft | 1 kts | 295° |
| 2026-05-04 20:36 | 41.79587 | 12.25921 | 16 ft | 1 kts | 295° |
| 2026-05-04 20:37 | 41.79587 | 12.25919 | 16 ft | 0 kts | 294° |